sensor_id;sensor_type;location;lat;lon;timestamp;temperature;humidity
22680;DHT22;11507;44.858;10.374;2022-11-04T00:01:42;15.10;99.90
22680;DHT22;11507;44.858;10.374;2022-11-04T00:04:09;15.10;99.90
22680;DHT22;11507;44.858;10.374;2022-11-04T00:06:36;15.10;99.90
22680;DHT22;11507;44.858;10.374;2022-11-04T00:09:03;15.00;99.90
22680;DHT22;11507;44.858;10.374;2022-11-04T00:11:30;15.10;99.90
22680;DHT22;11507;44.858;10.374;2022-11-04T00:14:16;15.10;99.90
22680;DHT22;11507;44.858;10.374;2022-11-04T00:16:46;15.10;99.90
22680;DHT22;11507;44.858;10.374;2022-11-04T00:19:31;15.10;99.90
22680;DHT22;11507;44.858;10.374;2022-11-04T00:22:20;15.10;99.90
22680;DHT22;11507;44.858;10.374;2022-11-04T00:25:05;15.10;99.90
22680;DHT22;11507;44.858;10.374;2022-11-04T00:27:49;15.10;99.90
22680;DHT22;11507;44.858;10.374;2022-11-04T00:30:33;15.10;99.90
22680;DHT22;11507;44.858;10.374;2022-11-04T00:32:59;15.10;99.90
22680;DHT22;11507;44.858;10.374;2022-11-04T00:35:50;15.10;99.90
22680;DHT22;11507;44.858;10.374;2022-11-04T00:38:18;15.10;99.90
22680;DHT22;11507;44.858;10.374;2022-11-04T00:40:44;15.00;99.90
22680;DHT22;11507;44.858;10.374;2022-11-04T00:43:10;15.10;99.90
22680;DHT22;11507;44.858;10.374;2022-11-04T00:45:36;15.00;99.90
22680;DHT22;11507;44.858;10.374;2022-11-04T00:48:03;15.10;99.90
22680;DHT22;11507;44.858;10.374;2022-11-04T00:50:29;15.00;99.90
22680;DHT22;11507;44.858;10.374;2022-11-04T00:52:59;15.10;99.90
22680;DHT22;11507;44.858;10.374;2022-11-04T00:55:27;15.10;99.90
22680;DHT22;11507;44.858;10.374;2022-11-04T00:57:54;15.10;99.90
22680;DHT22;11507;44.858;10.374;2022-11-04T01:00:20;15.10;99.90
22680;DHT22;11507;44.858;10.374;2022-11-04T01:02:47;15.10;99.90
22680;DHT22;11507;44.858;10.374;2022-11-04T01:05:13;15.00;99.90
22680;DHT22;11507;44.858;10.374;2022-11-04T01:07:40;15.10;99.90
22680;DHT22;11507;44.858;10.374;2022-11-04T01:10:06;15.10;99.90
22680;DHT22;11507;44.858;10.374;2022-11-04T01:12:32;15.10;99.90
22680;DHT22;11507;44.858;10.374;2022-11-04T01:14:58;15.10;99.90
22680;DHT22;11507;44.858;10.374;2022-11-04T01:17:24;15.10;99.90
22680;DHT22;11507;44.858;10.374;2022-11-04T01:19:50;15.10;99.90
22680;DHT22;11507;44.858;10.374;2022-11-04T01:22:16;15.10;99.90
22680;DHT22;11507;44.858;10.374;2022-11-04T01:24:41;15.00;99.90
22680;DHT22;11507;44.858;10.374;2022-11-04T01:27:07;15.10;99.90
22680;DHT22;11507;44.858;10.374;2022-11-04T01:29:33;15.00;99.90
22680;DHT22;11507;44.858;10.374;2022-11-04T01:31:59;15.10;99.90
22680;DHT22;11507;44.858;10.374;2022-11-04T01:34:25;15.00;99.90
22680;DHT22;11507;44.858;10.374;2022-11-04T01:36:50;15.00;99.90
22680;DHT22;11507;44.858;10.374;2022-11-04T01:39:16;15.00;99.90
22680;DHT22;11507;44.858;10.374;2022-11-04T01:41:43;15.00;99.90
22680;DHT22;11507;44.858;10.374;2022-11-04T01:45:14;15.00;99.90
22680;DHT22;11507;44.858;10.374;2022-11-04T01:47:25;15.00;99.90
22680;DHT22;11507;44.858;10.374;2022-11-04T01:50:29;14.90;99.90
22680;DHT22;11507;44.858;10.374;2022-11-04T01:53:01;15.00;99.90
22680;DHT22;11507;44.858;10.374;2022-11-04T01:55:33;15.00;99.90
22680;DHT22;11507;44.858;10.374;2022-11-04T01:58:02;15.00;99.90
22680;DHT22;11507;44.858;10.374;2022-11-04T02:00:29;15.00;99.90
22680;DHT22;11507;44.858;10.374;2022-11-04T02:03:14;15.00;99.90
22680;DHT22;11507;44.858;10.374;2022-11-04T02:05:41;15.00;99.90
22680;DHT22;11507;44.858;10.374;2022-11-04T02:08:08;14.90;99.90
22680;DHT22;11507;44.858;10.374;2022-11-04T02:10:39;14.90;99.90
22680;DHT22;11507;44.858;10.374;2022-11-04T02:13:06;14.90;99.90
22680;DHT22;11507;44.858;10.374;2022-11-04T02:31:28;14.90;99.90
22680;DHT22;11507;44.858;10.374;2022-11-04T02:34:18;14.90;99.90
22680;DHT22;11507;44.858;10.374;2022-11-04T02:37:05;14.90;99.90
22680;DHT22;11507;44.858;10.374;2022-11-04T02:39:48;14.90;99.90
22680;DHT22;11507;44.858;10.374;2022-11-04T02:45:20;14.90;99.90
22680;DHT22;11507;44.858;10.374;2022-11-04T02:48:26;14.90;99.90
22680;DHT22;11507;44.858;10.374;2022-11-04T02:51:03;14.90;99.90
22680;DHT22;11507;44.858;10.374;2022-11-04T02:53:36;14.90;99.90
22680;DHT22;11507;44.858;10.374;2022-11-04T02:56:03;14.90;99.90
22680;DHT22;11507;44.858;10.374;2022-11-04T02:58:35;14.80;99.90
22680;DHT22;11507;44.858;10.374;2022-11-04T03:01:04;14.80;99.90
22680;DHT22;11507;44.858;10.374;2022-11-04T03:03:38;14.80;99.90
22680;DHT22;11507;44.858;10.374;2022-11-04T03:06:07;14.80;99.90
22680;DHT22;11507;44.858;10.374;2022-11-04T03:08:45;14.70;99.90
22680;DHT22;11507;44.858;10.374;2022-11-04T03:11:18;14.70;99.90
22680;DHT22;11507;44.858;10.374;2022-11-04T03:14:03;14.80;99.90
22680;DHT22;11507;44.858;10.374;2022-11-04T03:16:38;14.80;99.90
22680;DHT22;11507;44.858;10.374;2022-11-04T03:22:13;14.70;99.90
22680;DHT22;11507;44.858;10.374;2022-11-04T03:24:39;14.70;99.90
22680;DHT22;11507;44.858;10.374;2022-11-04T03:30:16;14.80;99.90
22680;DHT22;11507;44.858;10.374;2022-11-04T03:33:00;14.80;99.90
22680;DHT22;11507;44.858;10.374;2022-11-04T03:35:30;14.80;99.90
22680;DHT22;11507;44.858;10.374;2022-11-04T03:37:57;14.80;99.90
22680;DHT22;11507;44.858;10.374;2022-11-04T03:40:23;14.80;99.90
22680;DHT22;11507;44.858;10.374;2022-11-04T03:43:00;14.80;99.90
22680;DHT22;11507;44.858;10.374;2022-11-04T03:45:28;14.80;99.90
22680;DHT22;11507;44.858;10.374;2022-11-04T03:47:55;14.80;99.90
22680;DHT22;11507;44.858;10.374;2022-11-04T03:50:29;14.70;99.90
22680;DHT22;11507;44.858;10.374;2022-11-04T03:52:56;14.70;99.90
22680;DHT22;11507;44.858;10.374;2022-11-04T03:59:06;14.70;99.90
22680;DHT22;11507;44.858;10.374;2022-11-04T04:04:43;14.70;99.90
22680;DHT22;11507;44.858;10.374;2022-11-04T04:07:30;14.60;99.90
22680;DHT22;11507;44.858;10.374;2022-11-04T04:10:06;14.60;99.90
22680;DHT22;11507;44.858;10.374;2022-11-04T04:13:01;14.50;99.90
22680;DHT22;11507;44.858;10.374;2022-11-04T04:15:33;14.50;99.90
22680;DHT22;11507;44.858;10.374;2022-11-04T04:18:05;14.40;99.90
22680;DHT22;11507;44.858;10.374;2022-11-04T04:20:35;14.40;99.90
22680;DHT22;11507;44.858;10.374;2022-11-04T04:23:05;14.40;99.90
22680;DHT22;11507;44.858;10.374;2022-11-04T04:25:54;14.40;99.90
22680;DHT22;11507;44.858;10.374;2022-11-04T04:28:41;14.40;99.90
22680;DHT22;11507;44.858;10.374;2022-11-04T04:31:08;14.40;99.90
22680;DHT22;11507;44.858;10.374;2022-11-04T04:33:37;14.40;99.90
22680;DHT22;11507;44.858;10.374;2022-11-04T04:36:04;14.40;99.90
22680;DHT22;11507;44.858;10.374;2022-11-04T04:38:31;14.40;99.90
22680;DHT22;11507;44.858;10.374;2022-11-04T04:41:26;14.40;99.90
22680;DHT22;11507;44.858;10.374;2022-11-04T04:44:26;14.40;99.90
22680;DHT22;11507;44.858;10.374;2022-11-04T04:47:20;14.40;99.90
22680;DHT22;11507;44.858;10.374;2022-11-04T04:49:51;14.40;99.90
22680;DHT22;11507;44.858;10.374;2022-11-04T04:52:17;14.40;99.90
22680;DHT22;11507;44.858;10.374;2022-11-04T04:54:44;14.40;99.90
22680;DHT22;11507;44.858;10.374;2022-11-04T04:57:10;14.40;99.90
22680;DHT22;11507;44.858;10.374;2022-11-04T04:59:36;14.40;99.90
22680;DHT22;11507;44.858;10.374;2022-11-04T05:02:02;14.50;99.90
22680;DHT22;11507;44.858;10.374;2022-11-04T05:04:29;14.40;99.90
22680;DHT22;11507;44.858;10.374;2022-11-04T05:06:55;14.50;99.90
22680;DHT22;11507;44.858;10.374;2022-11-04T05:09:21;14.40;99.90
22680;DHT22;11507;44.858;10.374;2022-11-04T05:11:47;14.50;99.90
22680;DHT22;11507;44.858;10.374;2022-11-04T05:14:13;14.40;99.90
22680;DHT22;11507;44.858;10.374;2022-11-04T05:16:39;14.40;99.90
22680;DHT22;11507;44.858;10.374;2022-11-04T05:19:05;14.40;99.90
22680;DHT22;11507;44.858;10.374;2022-11-04T05:21:30;14.40;99.90
22680;DHT22;11507;44.858;10.374;2022-11-04T05:23:57;14.40;99.90
22680;DHT22;11507;44.858;10.374;2022-11-04T05:26:23;14.40;99.90
22680;DHT22;11507;44.858;10.374;2022-11-04T05:28:49;14.40;99.90
22680;DHT22;11507;44.858;10.374;2022-11-04T05:31:15;14.40;99.90
22680;DHT22;11507;44.858;10.374;2022-11-04T05:33:41;14.40;99.90
22680;DHT22;11507;44.858;10.374;2022-11-04T05:36:07;14.40;99.90
22680;DHT22;11507;44.858;10.374;2022-11-04T05:38:33;14.40;99.90
22680;DHT22;11507;44.858;10.374;2022-11-04T05:40:59;14.40;99.90
22680;DHT22;11507;44.858;10.374;2022-11-04T05:43:25;14.10;99.90
22680;DHT22;11507;44.858;10.374;2022-11-04T05:45:51;13.60;99.90
22680;DHT22;11507;44.858;10.374;2022-11-04T05:48:17;13.30;99.90
22680;DHT22;11507;44.858;10.374;2022-11-04T05:50:44;12.90;99.90
22680;DHT22;11507;44.858;10.374;2022-11-04T05:53:10;12.80;99.90
22680;DHT22;11507;44.858;10.374;2022-11-04T05:55:35;12.50;99.90
22680;DHT22;11507;44.858;10.374;2022-11-04T05:58:01;12.40;99.90
22680;DHT22;11507;44.858;10.374;2022-11-04T06:00:33;12.30;99.90
22680;DHT22;11507;44.858;10.374;2022-11-04T06:02:59;12.10;99.90
22680;DHT22;11507;44.858;10.374;2022-11-04T06:05:26;12.00;99.90
22680;DHT22;11507;44.858;10.374;2022-11-04T06:07:55;11.90;99.90
22680;DHT22;11507;44.858;10.374;2022-11-04T06:10:23;11.80;99.90
22680;DHT22;11507;44.858;10.374;2022-11-04T06:12:49;11.80;99.90
22680;DHT22;11507;44.858;10.374;2022-11-04T06:15:15;11.80;99.90
22680;DHT22;11507;44.858;10.374;2022-11-04T06:17:41;11.80;99.90
22680;DHT22;11507;44.858;10.374;2022-11-04T06:20:07;11.70;99.90
22680;DHT22;11507;44.858;10.374;2022-11-04T06:22:33;11.70;99.90
22680;DHT22;11507;44.858;10.374;2022-11-04T06:24:59;11.60;99.90
22680;DHT22;11507;44.858;10.374;2022-11-04T06:27:25;11.60;99.90
22680;DHT22;11507;44.858;10.374;2022-11-04T06:29:51;11.60;99.90
22680;DHT22;11507;44.858;10.374;2022-11-04T06:32:18;11.50;99.90
22680;DHT22;11507;44.858;10.374;2022-11-04T06:34:45;11.50;99.90
22680;DHT22;11507;44.858;10.374;2022-11-04T06:37:11;11.50;99.90
22680;DHT22;11507;44.858;10.374;2022-11-04T06:39:38;11.50;99.90
22680;DHT22;11507;44.858;10.374;2022-11-04T06:42:05;11.40;99.90
22680;DHT22;11507;44.858;10.374;2022-11-04T06:44:31;11.40;99.90
22680;DHT22;11507;44.858;10.374;2022-11-04T06:46:59;11.50;99.90
22680;DHT22;11507;44.858;10.374;2022-11-04T06:49:27;11.40;99.90
22680;DHT22;11507;44.858;10.374;2022-11-04T06:51:53;11.30;99.90
22680;DHT22;11507;44.858;10.374;2022-11-04T06:54:20;11.30;99.90
22680;DHT22;11507;44.858;10.374;2022-11-04T06:56:47;11.40;99.90
22680;DHT22;11507;44.858;10.374;2022-11-04T06:59:18;11.40;99.90
22680;DHT22;11507;44.858;10.374;2022-11-04T07:01:48;11.40;99.90
22680;DHT22;11507;44.858;10.374;2022-11-04T07:04:23;11.30;99.90
22680;DHT22;11507;44.858;10.374;2022-11-04T07:06:50;11.30;99.90
22680;DHT22;11507;44.858;10.374;2022-11-04T07:09:18;11.30;99.90
22680;DHT22;11507;44.858;10.374;2022-11-04T07:11:44;11.30;99.90
22680;DHT22;11507;44.858;10.374;2022-11-04T07:14:10;11.40;99.90
22680;DHT22;11507;44.858;10.374;2022-11-04T07:16:36;11.40;99.90
22680;DHT22;11507;44.858;10.374;2022-11-04T07:19:06;11.50;99.90
22680;DHT22;11507;44.858;10.374;2022-11-04T07:21:32;11.70;99.90
22680;DHT22;11507;44.858;10.374;2022-11-04T07:23:57;11.90;99.90
22680;DHT22;11507;44.858;10.374;2022-11-04T07:26:24;12.00;99.90
22680;DHT22;11507;44.858;10.374;2022-11-04T07:28:50;12.10;99.90
22680;DHT22;11507;44.858;10.374;2022-11-04T07:31:16;12.20;99.90
22680;DHT22;11507;44.858;10.374;2022-11-04T07:33:43;12.20;99.90
22680;DHT22;11507;44.858;10.374;2022-11-04T07:36:14;12.30;99.90
22680;DHT22;11507;44.858;10.374;2022-11-04T07:38:43;12.20;99.90
22680;DHT22;11507;44.858;10.374;2022-11-04T07:41:10;12.20;99.90
22680;DHT22;11507;44.858;10.374;2022-11-04T07:43:36;12.20;99.90
22680;DHT22;11507;44.858;10.374;2022-11-04T07:46:09;12.40;99.90
22680;DHT22;11507;44.858;10.374;2022-11-04T07:48:43;12.50;99.90
22680;DHT22;11507;44.858;10.374;2022-11-04T07:51:12;12.80;99.90
22680;DHT22;11507;44.858;10.374;2022-11-04T07:53:42;13.00;99.90
22680;DHT22;11507;44.858;10.374;2022-11-04T07:56:16;13.00;99.90
22680;DHT22;11507;44.858;10.374;2022-11-04T07:58:43;12.80;99.90
22680;DHT22;11507;44.858;10.374;2022-11-04T08:01:15;12.70;99.90
22680;DHT22;11507;44.858;10.374;2022-11-04T08:03:43;12.60;99.90
22680;DHT22;11507;44.858;10.374;2022-11-04T08:06:17;12.50;99.90
22680;DHT22;11507;44.858;10.374;2022-11-04T08:08:44;12.40;99.90
22680;DHT22;11507;44.858;10.374;2022-11-04T08:11:18;12.40;99.90
22680;DHT22;11507;44.858;10.374;2022-11-04T08:13:46;12.40;99.90
22680;DHT22;11507;44.858;10.374;2022-11-04T08:16:18;12.70;99.90
22680;DHT22;11507;44.858;10.374;2022-11-04T08:18:45;13.20;99.90
22680;DHT22;11507;44.858;10.374;2022-11-04T08:21:17;13.70;99.90
22680;DHT22;11507;44.858;10.374;2022-11-04T08:23:44;14.10;99.90
22680;DHT22;11507;44.858;10.374;2022-11-04T08:26:16;14.50;99.90
22680;DHT22;11507;44.858;10.374;2022-11-04T08:28:42;14.80;99.90
22680;DHT22;11507;44.858;10.374;2022-11-04T08:31:19;15.20;99.90
22680;DHT22;11507;44.858;10.374;2022-11-04T08:33:46;15.50;99.90
22680;DHT22;11507;44.858;10.374;2022-11-04T08:36:24;15.80;99.90
22680;DHT22;11507;44.858;10.374;2022-11-04T08:38:51;16.00;99.90
22680;DHT22;11507;44.858;10.374;2022-11-04T08:41:20;15.90;99.90
22680;DHT22;11507;44.858;10.374;2022-11-04T08:43:46;15.80;99.90
22680;DHT22;11507;44.858;10.374;2022-11-04T08:46:13;15.70;99.90
22680;DHT22;11507;44.858;10.374;2022-11-04T08:48:40;15.70;99.90
22680;DHT22;11507;44.858;10.374;2022-11-04T08:51:17;15.80;99.90
22680;DHT22;11507;44.858;10.374;2022-11-04T08:53:43;15.80;99.90
22680;DHT22;11507;44.858;10.374;2022-11-04T08:56:17;15.70;99.90
22680;DHT22;11507;44.858;10.374;2022-11-04T08:58:44;15.70;99.90
22680;DHT22;11507;44.858;10.374;2022-11-04T09:01:11;15.70;99.90
22680;DHT22;11507;44.858;10.374;2022-11-04T09:03:38;15.70;99.90
22680;DHT22;11507;44.858;10.374;2022-11-04T09:06:06;16.10;99.90
22680;DHT22;11507;44.858;10.374;2022-11-04T09:08:32;16.50;99.90
22680;DHT22;11507;44.858;10.374;2022-11-04T09:10:58;16.90;99.90
22680;DHT22;11507;44.858;10.374;2022-11-04T09:13:26;17.30;99.90
22680;DHT22;11507;44.858;10.374;2022-11-04T09:15:52;17.80;99.90
22680;DHT22;11507;44.858;10.374;2022-11-04T09:18:18;18.40;99.90
22680;DHT22;11507;44.858;10.374;2022-11-04T09:20:44;19.00;99.90
22680;DHT22;11507;44.858;10.374;2022-11-04T09:23:11;19.50;99.90
22680;DHT22;11507;44.858;10.374;2022-11-04T09:25:37;20.00;99.90
22680;DHT22;11507;44.858;10.374;2022-11-04T09:28:03;20.40;99.90
22680;DHT22;11507;44.858;10.374;2022-11-04T09:30:29;20.90;99.90
22680;DHT22;11507;44.858;10.374;2022-11-04T09:32:55;21.40;99.20
22680;DHT22;11507;44.858;10.374;2022-11-04T09:35:21;21.30;96.50
22680;DHT22;11507;44.858;10.374;2022-11-04T09:37:47;21.60;98.50
22680;DHT22;11507;44.858;10.374;2022-11-04T09:40:16;21.60;95.70
22680;DHT22;11507;44.858;10.374;2022-11-04T09:45:26;22.10;94.40
22680;DHT22;11507;44.858;10.374;2022-11-04T09:47:57;22.20;95.70
22680;DHT22;11507;44.858;10.374;2022-11-04T09:50:45;22.30;94.80
22680;DHT22;11507;44.858;10.374;2022-11-04T09:53:19;22.50;93.50
22680;DHT22;11507;44.858;10.374;2022-11-04T09:55:57;23.00;91.40
22680;DHT22;11507;44.858;10.374;2022-11-04T09:58:25;22.70;91.30
22680;DHT22;11507;44.858;10.374;2022-11-04T10:01:05;23.00;90.70
22680;DHT22;11507;44.858;10.374;2022-11-04T10:03:47;22.70;87.00
22680;DHT22;11507;44.858;10.374;2022-11-04T10:06:34;22.30;89.50
22680;DHT22;11507;44.858;10.374;2022-11-04T10:19:47;23.60;87.20
22680;DHT22;11507;44.858;10.374;2022-11-04T10:22:36;23.70;82.80
22680;DHT22;11507;44.858;10.374;2022-11-04T10:25:41;23.70;77.50
22680;DHT22;11507;44.858;10.374;2022-11-04T10:28:14;23.70;82.40
22680;DHT22;11507;44.858;10.374;2022-11-04T10:30:45;24.00;80.30
22680;DHT22;11507;44.858;10.374;2022-11-04T10:35:47;24.60;75.80
22680;DHT22;11507;44.858;10.374;2022-11-04T10:39:12;24.70;76.20
22680;DHT22;11507;44.858;10.374;2022-11-04T10:41:34;25.00;75.40
22680;DHT22;11507;44.858;10.374;2022-11-04T10:46:58;24.10;69.60
22680;DHT22;11507;44.858;10.374;2022-11-04T10:52:21;23.60;75.10
22680;DHT22;11507;44.858;10.374;2022-11-04T10:54:47;24.50;71.50
22680;DHT22;11507;44.858;10.374;2022-11-04T10:57:20;24.60;70.40
22680;DHT22;11507;44.858;10.374;2022-11-04T10:59:54;24.90;68.80
22680;DHT22;11507;44.858;10.374;2022-11-04T11:02:43;25.10;67.40
22680;DHT22;11507;44.858;10.374;2022-11-04T11:07:47;25.10;66.80
22680;DHT22;11507;44.858;10.374;2022-11-04T11:10:33;25.20;64.90
22680;DHT22;11507;44.858;10.374;2022-11-04T11:13:04;25.40;64.70
22680;DHT22;11507;44.858;10.374;2022-11-04T11:15:36;26.00;63.10
22680;DHT22;11507;44.858;10.374;2022-11-04T11:18:12;26.00;62.20
22680;DHT22;11507;44.858;10.374;2022-11-04T11:21:25;26.10;61.30
22680;DHT22;11507;44.858;10.374;2022-11-04T11:23:45;26.60;60.60
22680;DHT22;11507;44.858;10.374;2022-11-04T11:26:21;27.20;59.90
22680;DHT22;11507;44.858;10.374;2022-11-04T11:28:55;27.40;57.20
22680;DHT22;11507;44.858;10.374;2022-11-04T11:31:24;27.50;57.40
22680;DHT22;11507;44.858;10.374;2022-11-04T11:34:20;27.50;56.80
22680;DHT22;11507;44.858;10.374;2022-11-04T11:36:48;27.70;56.10
22680;DHT22;11507;44.858;10.374;2022-11-04T11:39:20;27.70;54.30
22680;DHT22;11507;44.858;10.374;2022-11-04T11:42:11;27.40;54.80
22680;DHT22;11507;44.858;10.374;2022-11-04T11:44:41;27.60;57.20
22680;DHT22;11507;44.858;10.374;2022-11-04T11:55:11;28.40;54.50
22680;DHT22;11507;44.858;10.374;2022-11-04T11:57:46;28.50;52.70
22680;DHT22;11507;44.858;10.374;2022-11-04T12:00:16;28.90;53.80
22680;DHT22;11507;44.858;10.374;2022-11-04T12:05:15;29.60;51.30
22680;DHT22;11507;44.858;10.374;2022-11-04T12:13:45;29.60;49.00
22680;DHT22;11507;44.858;10.374;2022-11-04T12:16:27;30.20;51.50
22680;DHT22;11507;44.858;10.374;2022-11-04T12:22:09;30.00;49.60
22680;DHT22;11507;44.858;10.374;2022-11-04T12:24:45;29.80;49.40
22680;DHT22;11507;44.858;10.374;2022-11-04T12:27:40;29.60;50.00
22680;DHT22;11507;44.858;10.374;2022-11-04T12:30:12;29.80;50.80
22680;DHT22;11507;44.858;10.374;2022-11-04T12:40:25;29.60;51.00
22680;DHT22;11507;44.858;10.374;2022-11-04T12:43:11;29.70;49.20
22680;DHT22;11507;44.858;10.374;2022-11-04T12:48:40;30.10;48.00
22680;DHT22;11507;44.858;10.374;2022-11-04T12:56:17;30.00;48.60
22680;DHT22;11507;44.858;10.374;2022-11-04T13:01:42;29.70;48.80
22680;DHT22;11507;44.858;10.374;2022-11-04T13:04:14;29.90;50.80
22680;DHT22;11507;44.858;10.374;2022-11-04T13:09:50;30.20;49.50
22680;DHT22;11507;44.858;10.374;2022-11-04T13:12:45;30.50;49.20
22680;DHT22;11507;44.858;10.374;2022-11-04T13:15:14;30.90;48.10
22680;DHT22;11507;44.858;10.374;2022-11-04T13:17:42;31.20;47.90
22680;DHT22;11507;44.858;10.374;2022-11-04T13:20:15;31.40;49.10
22680;DHT22;11507;44.858;10.374;2022-11-04T13:22:47;31.80;48.30
22680;DHT22;11507;44.858;10.374;2022-11-04T13:25:33;32.50;47.00
22680;DHT22;11507;44.858;10.374;2022-11-04T13:28:02;33.00;46.60
22680;DHT22;11507;44.858;10.374;2022-11-04T13:38:59;33.50;45.30
22680;DHT22;11507;44.858;10.374;2022-11-04T13:44:28;32.30;44.00
22680;DHT22;11507;44.858;10.374;2022-11-04T13:47:02;30.10;46.30
22680;DHT22;11507;44.858;10.374;2022-11-04T13:49:32;28.40;50.70
22680;DHT22;11507;44.858;10.374;2022-11-04T13:52:08;26.60;51.80
22680;DHT22;11507;44.858;10.374;2022-11-04T13:54:40;25.00;55.30
22680;DHT22;11507;44.858;10.374;2022-11-04T13:57:16;23.80;57.90
22680;DHT22;11507;44.858;10.374;2022-11-04T14:00:07;22.80;60.50
22680;DHT22;11507;44.858;10.374;2022-11-04T14:18:35;19.10;76.90
22680;DHT22;11507;44.858;10.374;2022-11-04T14:21:15;18.80;76.90
22680;DHT22;11507;44.858;10.374;2022-11-04T14:23:46;18.60;78.50
22680;DHT22;11507;44.858;10.374;2022-11-04T14:26:18;18.40;78.30
22680;DHT22;11507;44.858;10.374;2022-11-04T14:29:00;18.40;82.70
22680;DHT22;11507;44.858;10.374;2022-11-04T14:31:42;18.20;81.80
22680;DHT22;11507;44.858;10.374;2022-11-04T14:34:33;18.10;83.90
22680;DHT22;11507;44.858;10.374;2022-11-04T14:37:48;17.80;85.50
22680;DHT22;11507;44.858;10.374;2022-11-04T14:39:58;17.70;88.70
22680;DHT22;11507;44.858;10.374;2022-11-04T14:45:16;17.50;86.50
22680;DHT22;11507;44.858;10.374;2022-11-04T14:47:47;17.30;88.30
22680;DHT22;11507;44.858;10.374;2022-11-04T14:50:20;17.30;90.40
22680;DHT22;11507;44.858;10.374;2022-11-04T14:52:55;17.10;91.70
22680;DHT22;11507;44.858;10.374;2022-11-04T14:55:25;17.10;94.20
22680;DHT22;11507;44.858;10.374;2022-11-04T14:57:55;17.00;94.30
22680;DHT22;11507;44.858;10.374;2022-11-04T15:00:36;16.90;94.50
22680;DHT22;11507;44.858;10.374;2022-11-04T15:05:57;16.60;96.00
22680;DHT22;11507;44.858;10.374;2022-11-04T15:08:36;16.50;97.00
22680;DHT22;11507;44.858;10.374;2022-11-04T15:11:23;16.40;98.90
22680;DHT22;11507;44.858;10.374;2022-11-04T15:14:23;16.30;99.90
22680;DHT22;11507;44.858;10.374;2022-11-04T15:16:53;16.30;99.90
22680;DHT22;11507;44.858;10.374;2022-11-04T15:19:34;16.20;99.90
22680;DHT22;11507;44.858;10.374;2022-11-04T15:22:04;16.10;99.90
22680;DHT22;11507;44.858;10.374;2022-11-04T15:24:31;16.00;99.90
22680;DHT22;11507;44.858;10.374;2022-11-04T15:27:02;15.90;99.90
22680;DHT22;11507;44.858;10.374;2022-11-04T15:29:29;15.80;99.90
22680;DHT22;11507;44.858;10.374;2022-11-04T15:31:58;15.70;99.90
22680;DHT22;11507;44.858;10.374;2022-11-04T15:34:25;15.70;99.90
22680;DHT22;11507;44.858;10.374;2022-11-04T15:36:57;15.60;99.90
22680;DHT22;11507;44.858;10.374;2022-11-04T15:42:02;15.30;99.90
22680;DHT22;11507;44.858;10.374;2022-11-04T15:44:52;15.20;99.90
22680;DHT22;11507;44.858;10.374;2022-11-04T15:49:50;14.90;99.90
22680;DHT22;11507;44.858;10.374;2022-11-04T15:52:27;14.70;99.90
22680;DHT22;11507;44.858;10.374;2022-11-04T15:54:56;14.50;99.90
22680;DHT22;11507;44.858;10.374;2022-11-04T15:57:37;14.30;99.90
22680;DHT22;11507;44.858;10.374;2022-11-04T16:02:48;14.10;99.90
22680;DHT22;11507;44.858;10.374;2022-11-04T16:07:41;13.80;99.90
22680;DHT22;11507;44.858;10.374;2022-11-04T16:12:57;13.60;99.90
22680;DHT22;11507;44.858;10.374;2022-11-04T16:15:39;13.50;99.90
22680;DHT22;11507;44.858;10.374;2022-11-04T16:21:12;13.20;99.90
22680;DHT22;11507;44.858;10.374;2022-11-04T16:24:07;13.00;99.90
22680;DHT22;11507;44.858;10.374;2022-11-04T16:26:41;12.90;99.90
22680;DHT22;11507;44.858;10.374;2022-11-04T16:29:20;12.70;99.90
22680;DHT22;11507;44.858;10.374;2022-11-04T16:32:25;12.60;99.90
22680;DHT22;11507;44.858;10.374;2022-11-04T16:34:57;12.50;99.90
22680;DHT22;11507;44.858;10.374;2022-11-04T16:37:28;12.40;99.90
22680;DHT22;11507;44.858;10.374;2022-11-04T16:39:57;12.30;99.90
22680;DHT22;11507;44.858;10.374;2022-11-04T16:42:23;12.20;99.90
22680;DHT22;11507;44.858;10.374;2022-11-04T16:44:55;12.10;99.90
22680;DHT22;11507;44.858;10.374;2022-11-04T16:47:26;12.00;99.90
22680;DHT22;11507;44.858;10.374;2022-11-04T16:49:59;12.00;99.90
22680;DHT22;11507;44.858;10.374;2022-11-04T16:52:26;11.90;99.90
22680;DHT22;11507;44.858;10.374;2022-11-04T16:54:52;11.90;99.90
22680;DHT22;11507;44.858;10.374;2022-11-04T16:57:23;11.80;99.90
22680;DHT22;11507;44.858;10.374;2022-11-04T16:59:49;11.80;99.90
22680;DHT22;11507;44.858;10.374;2022-11-04T17:02:19;11.80;99.90
22680;DHT22;11507;44.858;10.374;2022-11-04T17:04:46;11.80;99.90
22680;DHT22;11507;44.858;10.374;2022-11-04T17:07:12;11.70;99.90
22680;DHT22;11507;44.858;10.374;2022-11-04T17:09:38;11.60;99.90
22680;DHT22;11507;44.858;10.374;2022-11-04T17:12:04;11.60;99.90
22680;DHT22;11507;44.858;10.374;2022-11-04T17:14:33;11.70;99.90
22680;DHT22;11507;44.858;10.374;2022-11-04T17:16:59;11.60;99.90
22680;DHT22;11507;44.858;10.374;2022-11-04T17:19:26;11.50;99.90
22680;DHT22;11507;44.858;10.374;2022-11-04T17:21:52;11.40;99.90
22680;DHT22;11507;44.858;10.374;2022-11-04T17:24:18;11.40;99.90
22680;DHT22;11507;44.858;10.374;2022-11-04T17:26:45;11.30;99.90
22680;DHT22;11507;44.858;10.374;2022-11-04T17:29:11;11.20;99.90
22680;DHT22;11507;44.858;10.374;2022-11-04T17:31:37;11.10;99.90
22680;DHT22;11507;44.858;10.374;2022-11-04T17:34:02;11.00;99.90
22680;DHT22;11507;44.858;10.374;2022-11-04T17:36:28;10.90;99.90
22680;DHT22;11507;44.858;10.374;2022-11-04T17:38:56;10.90;99.90
22680;DHT22;11507;44.858;10.374;2022-11-04T17:41:22;10.80;99.90
22680;DHT22;11507;44.858;10.374;2022-11-04T17:44:07;10.80;99.90
22680;DHT22;11507;44.858;10.374;2022-11-04T17:46:33;10.70;99.90
22680;DHT22;11507;44.858;10.374;2022-11-04T17:49:11;10.70;99.90
22680;DHT22;11507;44.858;10.374;2022-11-04T17:51:40;10.70;99.90
22680;DHT22;11507;44.858;10.374;2022-11-04T17:54:07;10.60;99.90
22680;DHT22;11507;44.858;10.374;2022-11-04T17:56:34;10.60;99.90
22680;DHT22;11507;44.858;10.374;2022-11-04T17:59:00;10.50;99.90
22680;DHT22;11507;44.858;10.374;2022-11-04T18:01:29;10.50;99.90
22680;DHT22;11507;44.858;10.374;2022-11-04T18:03:56;10.50;99.90
22680;DHT22;11507;44.858;10.374;2022-11-04T18:06:23;10.40;99.90
22680;DHT22;11507;44.858;10.374;2022-11-04T18:08:54;10.40;99.90
22680;DHT22;11507;44.858;10.374;2022-11-04T18:11:23;10.30;99.90